createdAt,value
2023-05-06T00:02:01.823Z,11.80
2023-05-06T00:04:28.464Z,11.80
2023-05-06T00:06:56.854Z,11.80
2023-05-06T00:09:24.315Z,11.70
2023-05-06T00:11:51.485Z,11.60
2023-05-06T00:14:18.250Z,11.60
2023-05-06T00:16:45.052Z,11.60
2023-05-06T00:19:12.582Z,11.50
2023-05-06T00:21:39.287Z,11.50
2023-05-06T00:24:06.448Z,11.40
2023-05-06T00:26:33.129Z,11.40
2023-05-06T00:28:59.757Z,11.40
2023-05-06T00:31:26.509Z,11.20
2023-05-06T00:33:53.124Z,11.20
2023-05-06T00:36:19.880Z,11.10
2023-05-06T00:38:46.684Z,11.10
2023-05-06T00:41:13.329Z,11.10
2023-05-06T00:43:40.058Z,11.00
2023-05-06T00:46:09.500Z,11.00
2023-05-06T00:48:36.612Z,11.00
2023-05-06T00:51:04.705Z,10.90
2023-05-06T00:53:31.416Z,10.90
2023-05-06T00:55:58.514Z,10.80
2023-05-06T00:58:25.399Z,10.70
2023-05-06T01:00:52.339Z,10.70
2023-05-06T01:03:19.375Z,10.60
2023-05-06T01:06:09.093Z,10.60
2023-05-06T01:08:45.727Z,10.60
2023-05-06T01:11:17.341Z,10.50
2023-05-06T01:14:02.795Z,10.40
2023-05-06T01:16:31.709Z,10.40
2023-05-06T01:19:00.246Z,10.40
2023-05-06T01:21:34.766Z,10.30
2023-05-06T01:24:02.066Z,10.20
2023-05-06T01:26:28.762Z,10.10
2023-05-06T01:28:57.046Z,10.00
2023-05-06T01:31:31.490Z,10.00
2023-05-06T01:34:16.962Z,9.90
2023-05-06T01:37:06.646Z,9.80
2023-05-06T01:39:34.086Z,9.90
2023-05-06T01:42:02.672Z,9.90
2023-05-06T01:44:33.533Z,9.80
2023-05-06T01:47:01.234Z,9.80
2023-05-06T01:49:29.351Z,9.70
2023-05-06T01:51:56.412Z,9.50
2023-05-06T01:54:23.163Z,9.40
2023-05-06T01:56:49.825Z,9.30
2023-05-06T01:59:16.508Z,9.30
2023-05-06T02:01:43.202Z,9.30
2023-05-06T02:04:09.934Z,9.10
2023-05-06T02:06:36.572Z,9.00
2023-05-06T02:09:03.424Z,9.10
2023-05-06T02:11:30.151Z,9.00
2023-05-06T02:13:56.993Z,9.00
2023-05-06T02:16:27.042Z,9.00
2023-05-06T02:18:53.917Z,9.00
2023-05-06T02:21:20.713Z,8.90
2023-05-06T02:23:47.311Z,8.70
2023-05-06T02:26:13.954Z,8.70
2023-05-06T02:28:40.674Z,8.60
2023-05-06T02:31:07.456Z,8.70
2023-05-06T02:33:34.155Z,8.60
2023-05-06T02:36:00.850Z,8.60
2023-05-06T02:38:27.690Z,8.60
2023-05-06T02:40:54.355Z,8.60
2023-05-06T02:43:22.979Z,8.70
2023-05-06T02:45:49.709Z,8.70
2023-05-06T02:48:16.395Z,8.60
2023-05-06T02:50:43.005Z,8.60
2023-05-06T02:53:10.525Z,8.60
2023-05-06T02:55:37.160Z,8.60
2023-05-06T02:58:03.781Z,8.60
2023-05-06T03:00:31.267Z,8.50
2023-05-06T03:02:57.901Z,8.50
2023-05-06T03:05:24.567Z,8.50
2023-05-06T03:07:51.270Z,8.60
2023-05-06T03:10:18.009Z,8.50
2023-05-06T03:12:44.646Z,8.40
2023-05-06T03:15:11.676Z,8.30
2023-05-06T03:17:38.499Z,8.30
2023-05-06T03:20:08.226Z,8.30
2023-05-06T03:22:34.945Z,8.30
2023-05-06T03:25:01.572Z,8.30
2023-05-06T03:27:28.143Z,8.20
2023-05-06T03:29:54.799Z,8.30
2023-05-06T03:32:21.493Z,8.20
2023-05-06T03:34:48.078Z,8.20
2023-05-06T03:37:14.736Z,8.00
2023-05-06T03:39:41.515Z,8.10
2023-05-06T03:42:09.775Z,7.90
2023-05-06T03:44:36.625Z,7.90
2023-05-06T03:47:03.318Z,7.80
2023-05-06T03:49:30.051Z,7.80
2023-05-06T03:51:56.942Z,7.90
2023-05-06T03:54:23.650Z,7.90
2023-05-06T03:56:50.545Z,8.00
2023-05-06T03:59:17.225Z,8.00
2023-05-06T04:01:43.905Z,7.90
2023-05-06T04:04:10.783Z,8.00
2023-05-06T04:06:37.564Z,8.00
2023-05-06T04:09:06.214Z,8.00
2023-05-06T04:11:32.919Z,8.00
2023-05-06T04:13:59.520Z,8.00
2023-05-06T04:16:26.603Z,8.00
2023-05-06T04:18:53.447Z,7.90
2023-05-06T04:21:20.101Z,7.90
2023-05-06T04:23:46.769Z,7.90
2023-05-06T04:26:13.444Z,8.00
2023-05-06T04:28:40.148Z,7.90
2023-05-06T04:31:08.674Z,7.90
2023-05-06T04:33:35.792Z,7.90
2023-05-06T04:36:03.506Z,8.00
2023-05-06T04:38:32.200Z,7.90
2023-05-06T04:40:59.670Z,8.00
2023-05-06T04:43:29.577Z,8.00
2023-05-06T04:45:56.366Z,8.00
2023-05-06T04:48:23.152Z,7.80
2023-05-06T04:50:50.557Z,7.90
2023-05-06T04:53:17.539Z,8.00
2023-05-06T04:55:44.383Z,7.90
2023-05-06T04:58:11.055Z,8.00
2023-05-06T05:00:37.685Z,7.90
2023-05-06T05:03:04.453Z,7.90
2023-05-06T05:05:34.676Z,7.90
2023-05-06T05:08:01.357Z,8.00
2023-05-06T05:10:28.129Z,8.00
2023-05-06T05:12:54.758Z,8.00
2023-05-06T05:15:21.816Z,8.10
2023-05-06T05:17:49.364Z,8.10
2023-05-06T05:20:16.476Z,8.20
2023-05-06T05:22:43.104Z,8.10
2023-05-06T05:25:10.272Z,8.00
2023-05-06T05:27:37.156Z,8.10
2023-05-06T05:30:04.658Z,8.30
2023-05-06T05:32:31.378Z,8.20
2023-05-06T05:34:58.016Z,8.10
2023-05-06T05:37:24.769Z,8.20
2023-05-06T05:39:51.643Z,8.10
2023-05-06T05:42:18.238Z,8.20
2023-05-06T05:44:44.873Z,8.10
2023-05-06T05:47:11.941Z,8.10
2023-05-06T05:49:38.587Z,8.10
2023-05-06T05:52:05.256Z,8.20
2023-05-06T05:54:31.927Z,8.30
2023-05-06T05:56:58.992Z,8.30
2023-05-06T05:59:25.921Z,8.30
2023-05-06T06:01:52.553Z,8.20
2023-05-06T06:04:19.270Z,8.30
2023-05-06T06:06:46.472Z,8.30
2023-05-06T06:09:13.617Z,8.20
2023-05-06T06:11:40.805Z,8.20
2023-05-06T06:14:07.553Z,8.00
2023-05-06T06:16:34.512Z,7.90
2023-05-06T06:19:01.283Z,7.90
2023-05-06T06:21:28.011Z,7.90
2023-05-06T06:23:54.628Z,7.80
2023-05-06T06:26:21.580Z,7.90
2023-05-06T06:28:48.431Z,8.00
2023-05-06T06:31:15.087Z,8.00
2023-05-06T06:33:41.818Z,8.00
2023-05-06T06:36:08.924Z,7.90
2023-05-06T06:38:35.736Z,8.10
2023-05-06T06:41:02.475Z,8.10
2023-05-06T06:43:29.101Z,8.10
2023-05-06T06:45:56.356Z,8.10
2023-05-06T06:48:23.604Z,8.20
2023-05-06T06:50:50.325Z,8.20
2023-05-06T06:53:17.473Z,8.20
2023-05-06T06:55:45.622Z,8.10
2023-05-06T06:58:12.311Z,8.10
2023-05-06T07:00:39.030Z,8.00
2023-05-06T07:03:05.825Z,8.10
2023-05-06T07:05:32.504Z,8.00
2023-05-06T07:07:59.153Z,8.00
2023-05-06T07:10:25.982Z,8.00
2023-05-06T07:12:52.744Z,8.00
2023-05-06T07:15:19.506Z,8.10
2023-05-06T07:17:46.218Z,8.10
2023-05-06T07:20:13.348Z,8.20
2023-05-06T07:22:41.305Z,8.30
2023-05-06T07:25:08.818Z,8.20
2023-05-06T07:27:35.678Z,8.20
2023-05-06T07:30:02.497Z,8.20
2023-05-06T07:32:29.484Z,8.30
2023-05-06T07:34:56.100Z,8.20
2023-05-06T07:37:22.796Z,8.30
2023-05-06T07:39:49.416Z,8.40
2023-05-06T07:42:16.052Z,8.40
2023-05-06T07:44:43.203Z,8.30
2023-05-06T07:47:09.985Z,8.40
2023-05-06T07:49:36.768Z,8.60
2023-05-06T07:52:04.183Z,8.70
2023-05-06T07:54:31.732Z,8.80
2023-05-06T07:56:58.959Z,8.80
2023-05-06T07:59:25.830Z,8.70
2023-05-06T08:01:52.482Z,8.80
2023-05-06T08:04:19.189Z,8.90
2023-05-06T08:06:46.014Z,9.00
2023-05-06T08:09:16.933Z,9.10
2023-05-06T08:11:46.525Z,9.20
2023-05-06T08:14:13.121Z,9.30
2023-05-06T08:16:39.909Z,9.30
2023-05-06T08:19:06.550Z,9.40
2023-05-06T08:21:33.289Z,9.40
2023-05-06T08:23:59.916Z,9.20
2023-05-06T08:26:26.605Z,9.20
2023-05-06T08:28:53.430Z,9.10
2023-05-06T08:31:20.071Z,9.20
2023-05-06T08:33:46.759Z,9.10
2023-05-06T08:36:13.354Z,9.30
2023-05-06T08:38:40.281Z,9.30
2023-05-06T08:41:09.557Z,9.20
2023-05-06T08:43:42.964Z,9.20
2023-05-06T08:46:09.708Z,9.30
2023-05-06T08:48:37.572Z,9.30
2023-05-06T08:51:04.644Z,9.20
2023-05-06T08:53:33.179Z,9.30
2023-05-06T08:56:08.612Z,9.40
2023-05-06T08:58:37.552Z,9.40
2023-05-06T09:01:04.968Z,9.50
2023-05-06T09:03:31.834Z,9.50
2023-05-06T09:05:58.651Z,9.30
2023-05-06T09:08:25.283Z,9.40
2023-05-06T09:10:51.941Z,9.40
2023-05-06T09:13:19.645Z,9.50
2023-05-06T09:15:48.661Z,9.40
2023-05-06T09:18:16.535Z,9.40
2023-05-06T09:20:45.684Z,9.40
2023-05-06T09:23:14.984Z,9.30
2023-05-06T09:25:43.002Z,9.40
2023-05-06T09:28:11.345Z,9.40
2023-05-06T09:30:40.858Z,9.40
2023-05-06T09:33:08.216Z,9.50
2023-05-06T09:35:39.133Z,9.50
2023-05-06T09:38:07.575Z,9.60
2023-05-06T09:40:38.218Z,9.50
2023-05-06T09:43:05.911Z,9.40
2023-05-06T09:45:33.287Z,9.40
2023-05-06T09:48:00.649Z,9.40
2023-05-06T09:50:27.448Z,9.40
2023-05-06T09:52:55.524Z,9.40
2023-05-06T09:55:23.715Z,9.40
2023-05-06T09:57:50.535Z,9.50
2023-05-06T10:00:17.778Z,9.60
2023-05-06T10:02:45.970Z,9.60
2023-05-06T10:05:13.887Z,9.50
2023-05-06T10:07:44.236Z,9.50
2023-05-06T10:10:12.204Z,9.50
2023-05-06T10:12:39.696Z,9.50
2023-05-06T10:15:07.156Z,9.40
2023-05-06T10:17:35.538Z,9.50
2023-05-06T10:20:04.656Z,9.60
2023-05-06T10:22:44.142Z,9.70
2023-05-06T10:25:19.253Z,9.70
2023-05-06T10:27:46.733Z,9.40
2023-05-06T10:30:17.255Z,9.60
2023-05-06T10:32:44.683Z,9.60
2023-05-06T10:35:20.320Z,9.70
2023-05-06T10:37:49.109Z,9.70
2023-05-06T10:40:16.057Z,9.50
2023-05-06T10:42:42.910Z,9.30
2023-05-06T10:45:11.055Z,9.30
2023-05-06T10:47:56.079Z,9.40
2023-05-06T10:50:26.895Z,9.50
2023-05-06T10:52:56.213Z,9.50
2023-05-06T10:55:26.160Z,9.60
2023-05-06T10:58:11.953Z,9.40
2023-05-06T11:00:38.593Z,9.20
2023-05-06T11:03:13.433Z,9.10
2023-05-06T11:05:50.501Z,9.30
2023-05-06T11:08:25.597Z,9.30
2023-05-06T11:10:53.502Z,9.40
2023-05-06T11:13:28.239Z,9.30
2023-05-06T11:15:56.258Z,9.40
2023-05-06T11:18:26.908Z,9.50
2023-05-06T11:21:02.854Z,9.50
2023-05-06T11:23:42.168Z,9.40
2023-05-06T11:26:10.372Z,9.60
2023-05-06T11:28:38.994Z,9.70
2023-05-06T11:31:06.014Z,9.60
2023-05-06T11:33:34.352Z,9.40
2023-05-06T11:36:01.846Z,9.50
2023-05-06T11:38:46.000Z,9.50
2023-05-06T11:41:13.771Z,9.70
2023-05-06T11:43:45.681Z,9.70
2023-05-06T11:46:12.340Z,9.40
2023-05-06T11:48:40.254Z,9.40
2023-05-06T11:51:08.190Z,9.50
2023-05-06T11:53:35.067Z,9.40
2023-05-06T11:56:02.355Z,9.60
2023-05-06T11:58:30.415Z,9.70
2023-05-06T12:00:59.933Z,9.30
2023-05-06T12:03:28.834Z,9.40
2023-05-06T12:05:56.140Z,9.30
2023-05-06T12:08:29.707Z,9.30
2023-05-06T12:11:02.279Z,9.30
2023-05-06T12:13:29.472Z,9.30
2023-05-06T12:15:58.989Z,9.40
2023-05-06T12:18:26.508Z,9.20
2023-05-06T12:20:57.530Z,9.30
2023-05-06T12:23:24.351Z,9.30
2023-05-06T12:26:05.566Z,9.50
2023-05-06T12:28:35.250Z,9.40
2023-05-06T12:31:21.972Z,9.30
2023-05-06T12:33:50.064Z,9.50
2023-05-06T12:36:17.983Z,9.60
2023-05-06T12:38:59.169Z,9.60
2023-05-06T12:41:37.312Z,9.60
2023-05-06T12:44:24.545Z,9.50
2023-05-06T12:46:52.600Z,9.30
2023-05-06T12:49:19.297Z,9.20
2023-05-06T12:51:47.647Z,9.10
2023-05-06T12:54:30.681Z,9.30
2023-05-06T12:56:57.424Z,9.30
2023-05-06T12:59:27.075Z,9.20
2023-05-06T13:01:54.164Z,9.20
2023-05-06T13:04:22.257Z,9.30
2023-05-06T13:06:50.665Z,9.30
2023-05-06T13:09:17.762Z,9.30
2023-05-06T13:11:44.630Z,9.40
2023-05-06T13:14:11.336Z,9.40
2023-05-06T13:16:38.374Z,9.30
2023-05-06T13:19:05.185Z,9.30
2023-05-06T13:21:32.342Z,9.30
2023-05-06T13:23:59.217Z,9.30
2023-05-06T13:26:26.657Z,9.30
2023-05-06T13:28:53.377Z,9.40
2023-05-06T13:31:20.172Z,9.50
2023-05-06T13:33:46.862Z,9.50
2023-05-06T13:36:13.491Z,9.60
2023-05-06T13:38:40.146Z,9.60
2023-05-06T13:41:07.577Z,9.60
2023-05-06T13:43:34.224Z,9.70
2023-05-06T13:46:00.947Z,9.80
2023-05-06T13:48:27.525Z,9.60
2023-05-06T13:50:54.133Z,9.60
2023-05-06T13:53:21.516Z,9.40
2023-05-06T13:55:48.195Z,9.40
2023-05-06T13:58:14.862Z,9.20
2023-05-06T14:00:41.540Z,9.30
2023-05-06T14:03:08.342Z,9.30
2023-05-06T14:05:35.135Z,9.20
2023-05-06T14:08:01.790Z,9.20
2023-05-06T14:10:28.479Z,9.20
2023-05-06T14:12:55.174Z,9.30
2023-05-06T14:15:22.028Z,9.50
2023-05-06T14:17:48.810Z,9.50
2023-05-06T14:20:15.729Z,9.30
2023-05-06T14:22:42.606Z,9.40
2023-05-06T14:25:10.506Z,9.50
2023-05-06T14:27:37.456Z,9.50
2023-05-06T14:30:08.640Z,9.50
2023-05-06T14:32:36.500Z,9.30
2023-05-06T14:35:03.168Z,9.50
2023-05-06T14:37:30.193Z,9.60
2023-05-06T14:39:57.515Z,9.60
2023-05-06T14:42:24.222Z,9.50
2023-05-06T14:44:50.909Z,9.60
2023-05-06T14:47:17.691Z,9.60
2023-05-06T14:49:44.325Z,9.50
2023-05-06T14:52:11.070Z,9.60
2023-05-06T14:54:42.199Z,9.60
2023-05-06T14:57:09.707Z,9.40
2023-05-06T14:59:37.038Z,9.50
2023-05-06T15:02:04.552Z,9.50
2023-05-06T15:04:31.209Z,9.60
2023-05-06T15:06:58.067Z,9.50
2023-05-06T15:09:25.718Z,9.60
2023-05-06T15:11:52.650Z,9.60
2023-05-06T15:14:19.297Z,9.50
2023-05-06T15:16:46.033Z,9.40
2023-05-06T15:19:12.830Z,9.30
2023-05-06T15:21:39.451Z,9.30
2023-05-06T15:24:06.614Z,9.40
2023-05-06T15:26:33.205Z,9.30
2023-05-06T15:29:00.006Z,9.40
2023-05-06T15:31:27.016Z,9.40
2023-05-06T15:33:53.626Z,9.40
2023-05-06T15:36:20.263Z,9.40
2023-05-06T15:38:52.955Z,9.40
2023-05-06T15:41:19.777Z,9.40
2023-05-06T15:43:46.368Z,9.50
2023-05-06T15:46:12.994Z,9.60
2023-05-06T15:48:39.675Z,9.60
2023-05-06T15:51:06.331Z,9.80
2023-05-06T15:53:33.028Z,9.80
2023-05-06T15:56:13.102Z,9.70
2023-05-06T15:58:44.013Z,9.80
2023-05-06T16:01:11.466Z,9.80
2023-05-06T16:03:41.210Z,9.70
2023-05-06T16:06:09.627Z,9.50
2023-05-06T16:08:40.363Z,9.50
2023-05-06T16:11:07.363Z,9.60
2023-05-06T16:13:34.560Z,9.60
2023-05-06T16:16:01.782Z,9.50
2023-05-06T16:18:28.523Z,9.60
2023-05-06T16:20:55.235Z,9.70
2023-05-06T16:23:22.034Z,9.60
2023-05-06T16:25:48.780Z,9.60
2023-05-06T16:28:15.550Z,9.40
2023-05-06T16:30:44.756Z,9.50
2023-05-06T16:33:12.707Z,9.50
2023-05-06T16:35:39.642Z,9.50
2023-05-06T16:38:06.575Z,9.50
2023-05-06T16:40:41.362Z,9.50
2023-05-06T16:43:09.200Z,9.50
2023-05-06T16:45:35.846Z,9.40
2023-05-06T16:48:02.645Z,9.50
2023-05-06T16:50:29.299Z,9.50
2023-05-06T16:52:55.918Z,9.50
2023-05-06T16:55:22.633Z,9.60
2023-05-06T16:57:49.384Z,9.50
2023-05-06T17:00:16.715Z,9.50
2023-05-06T17:02:43.584Z,9.60
2023-05-06T17:05:10.507Z,9.50
2023-05-06T17:07:37.191Z,9.60
2023-05-06T17:10:04.685Z,9.50
2023-05-06T17:12:32.437Z,9.50
2023-05-06T17:14:59.079Z,9.50
2023-05-06T17:17:28.797Z,9.40
2023-05-06T17:19:57.389Z,9.40
2023-05-06T17:22:26.373Z,9.40
2023-05-06T17:24:53.444Z,9.40
2023-05-06T17:27:20.199Z,9.40
2023-05-06T17:29:46.883Z,9.40
2023-05-06T17:32:13.500Z,9.30
2023-05-06T17:34:40.341Z,9.30
2023-05-06T17:37:07.121Z,9.20
2023-05-06T17:39:34.102Z,9.20
2023-05-06T17:42:02.559Z,9.20
2023-05-06T17:44:29.276Z,9.20
2023-05-06T17:46:56.143Z,9.20
2023-05-06T17:49:23.412Z,9.20
2023-05-06T17:51:51.158Z,9.10
2023-05-06T17:54:17.942Z,9.10
2023-05-06T17:56:50.501Z,9.10
2023-05-06T17:59:19.006Z,9.10
2023-05-06T18:01:46.079Z,9.10
2023-05-06T18:04:12.985Z,9.10
2023-05-06T18:06:41.832Z,9.10
2023-05-06T18:09:10.284Z,9.20
2023-05-06T18:11:38.205Z,9.20
2023-05-06T18:14:05.653Z,9.10
2023-05-06T18:16:32.370Z,9.20
2023-05-06T18:19:00.889Z,9.10
2023-05-06T18:21:27.897Z,9.20
2023-05-06T18:24:01.898Z,9.20
2023-05-06T18:26:43.953Z,9.20
2023-05-06T18:29:11.982Z,9.10
2023-05-06T18:31:38.678Z,9.10
2023-05-06T18:34:05.437Z,9.10
2023-05-06T18:36:32.692Z,9.10
2023-05-06T18:38:59.324Z,9.00
2023-05-06T18:41:26.129Z,9.10
2023-05-06T18:43:52.820Z,9.10
2023-05-06T18:46:19.595Z,9.10
2023-05-06T18:48:46.262Z,9.20
2023-05-06T18:51:17.405Z,9.10
2023-05-06T18:53:44.895Z,9.10
2023-05-06T18:56:11.938Z,9.00
2023-05-06T18:58:40.675Z,9.00
2023-05-06T19:01:09.153Z,9.00
2023-05-06T19:03:36.373Z,8.90
2023-05-06T19:06:05.363Z,8.90
2023-05-06T19:08:32.319Z,8.90
2023-05-06T19:10:59.490Z,8.90
2023-05-06T19:13:26.374Z,8.90
2023-05-06T19:15:53.283Z,8.90
2023-05-06T19:18:20.056Z,8.90
2023-05-06T19:20:46.841Z,8.80
2023-05-06T19:23:13.584Z,8.90
2023-05-06T19:25:40.309Z,8.90
2023-05-06T19:28:06.977Z,8.90
2023-05-06T19:30:35.008Z,8.80
2023-05-06T19:33:02.698Z,8.90
2023-05-06T19:35:29.419Z,8.90
2023-05-06T19:37:56.384Z,8.90
2023-05-06T19:40:23.320Z,8.80
2023-05-06T19:42:50.315Z,8.90
2023-05-06T19:45:19.072Z,8.80
2023-05-06T19:47:46.541Z,8.90
2023-05-06T19:50:13.437Z,8.90
2023-05-06T19:52:40.635Z,8.80
2023-05-06T19:55:07.882Z,8.70
2023-05-06T19:57:34.617Z,8.80
2023-05-06T20:00:05.964Z,8.80
2023-05-06T20:02:33.045Z,8.80
2023-05-06T20:05:00.590Z,8.80
2023-05-06T20:07:27.855Z,8.80
2023-05-06T20:09:56.078Z,8.80
2023-05-06T20:12:23.641Z,8.80
2023-05-06T20:14:50.471Z,8.80
2023-05-06T20:17:17.103Z,8.80
2023-05-06T20:19:47.903Z,8.80
2023-05-06T20:22:14.950Z,8.80
2023-05-06T20:24:42.930Z,8.80
2023-05-06T20:27:10.232Z,8.80
2023-05-06T20:29:36.877Z,8.80
2023-05-06T20:32:03.622Z,8.80
2023-05-06T20:34:30.401Z,8.80
2023-05-06T20:36:57.472Z,8.90
2023-05-06T20:39:24.093Z,8.80
2023-05-06T20:41:50.778Z,8.80
2023-05-06T20:44:17.460Z,8.70
2023-05-06T20:46:44.259Z,8.70
2023-05-06T20:49:11.739Z,8.70
2023-05-06T20:51:38.367Z,8.70
2023-05-06T20:54:05.066Z,8.70
2023-05-06T20:56:31.731Z,8.70
2023-05-06T20:58:58.534Z,8.60
2023-05-06T21:01:25.811Z,8.60
2023-05-06T21:03:52.594Z,8.60
2023-05-06T21:06:19.639Z,8.60
2023-05-06T21:08:47.058Z,8.70
2023-05-06T21:11:14.110Z,8.60
2023-05-06T21:13:41.757Z,8.70
2023-05-06T21:16:08.562Z,8.70
2023-05-06T21:18:36.811Z,8.80
2023-05-06T21:21:03.852Z,8.80
2023-05-06T21:23:31.002Z,8.70
2023-05-06T21:25:59.380Z,8.70
2023-05-06T21:28:26.236Z,8.70
2023-05-06T21:30:52.953Z,8.70
2023-05-06T21:33:19.617Z,8.70
2023-05-06T21:35:46.333Z,8.60
2023-05-06T21:38:12.983Z,8.70
2023-05-06T21:40:39.664Z,8.60
2023-05-06T21:43:06.296Z,8.70
2023-05-06T21:45:32.941Z,8.70
2023-05-06T21:47:59.645Z,8.70
2023-05-06T21:50:26.724Z,8.70
2023-05-06T21:52:53.362Z,8.70
2023-05-06T21:55:20.155Z,8.70
2023-05-06T21:57:46.879Z,8.70
2023-05-06T22:00:14.014Z,8.80
2023-05-06T22:02:41.160Z,8.80
2023-05-06T22:05:08.785Z,8.70
2023-05-06T22:07:36.026Z,8.70
2023-05-06T22:10:03.304Z,8.60
2023-05-06T22:12:30.913Z,8.60
2023-05-06T22:14:57.577Z,8.60
2023-05-06T22:17:24.443Z,8.70
2023-05-06T22:19:51.896Z,8.70
2023-05-06T22:22:19.154Z,8.60
2023-05-06T22:24:48.106Z,8.70
2023-05-06T22:27:14.913Z,8.70
2023-05-06T22:29:41.674Z,8.70
2023-05-06T22:32:08.463Z,8.70
2023-05-06T22:34:35.197Z,8.80
2023-05-06T22:37:08.282Z,8.80
2023-05-06T22:39:35.061Z,8.70
2023-05-06T22:42:01.785Z,8.70
2023-05-06T22:44:28.444Z,8.70
2023-05-06T22:46:55.093Z,8.70
2023-05-06T22:49:21.845Z,8.70
2023-05-06T22:51:48.578Z,8.70
2023-05-06T22:54:15.258Z,8.70
2023-05-06T22:56:41.964Z,8.70
2023-05-06T22:59:08.570Z,8.80
2023-05-06T23:01:35.247Z,8.70
2023-05-06T23:04:02.055Z,8.70
2023-05-06T23:06:28.737Z,8.70
2023-05-06T23:08:55.408Z,8.80
2023-05-06T23:11:22.071Z,8.80
2023-05-06T23:13:48.813Z,8.80
2023-05-06T23:16:15.914Z,8.80
2023-05-06T23:18:42.627Z,8.80
2023-05-06T23:21:09.422Z,8.80
2023-05-06T23:23:36.088Z,8.80
2023-05-06T23:26:02.848Z,8.80
2023-05-06T23:28:29.750Z,8.80
2023-05-06T23:30:56.427Z,8.80
2023-05-06T23:33:23.113Z,8.80
2023-05-06T23:35:49.753Z,8.80
2023-05-06T23:38:16.455Z,8.80
2023-05-06T23:40:43.145Z,8.80
2023-05-06T23:43:11.268Z,8.90
2023-05-06T23:45:38.072Z,8.80
2023-05-06T23:48:05.293Z,8.90
2023-05-06T23:50:32.050Z,8.90
2023-05-06T23:52:58.734Z,8.80
2023-05-06T23:55:28.050Z,8.80
2023-05-06T23:57:54.953Z,8.80
